Share

Vila Real, Portugal

Moimenta Da Beira (IMOIMENT2) Elev 2192 ft | 40.98 °N, 7.61 °W | Change Station

Current weather conditions updated 4 minutes ago

Clear
Clear
76.4 °F
Feels Like 78 °F
N
2.0
Wind Variable Wind from West
Gusts 4.0 mph
Sunrise 6:48 AM
Sunset 8:12 PM
Moon Waning Gibbous

Tomorrow is forecast to be nearly the same temperature as today. Light rain overnight tomorrow night.

Pressure 30.01 in
Visibility -9999.0 miles
Clouds
Heat Index 78 °F
Dew Point 50 °F
Humidity 39%
Rainfall 0.00 in
Snow Depth Not available.
UV Not available.
Pollen Not available.
Air Quality Not available.
Flu Activity Not available.
METAR LPPR 171630Z 32008KT CAVOK 20/14 Q1016

More Conditions Fewer Conditions

Pressure 30.01 in
Visibility -9999.0 miles
Clouds
Heat Index 78 °F
Dew Point 50 °F
Humidity 39%
Rainfall 0.00 in
Snow Depth Not available.
UV Not available.
Pollen Not available.
Air Quality Not available.
Flu Activity Not available.
METAR LPPR 171630Z 32008KT CAVOK 20/14 Q1016

More Conditions Fewer Conditions

10-Day Forecast

Almanac

Astronomy

Apr. 17, 2014 Rise Set
Actual Time 6:48 AM WEST 8:12 PM WEST
Civil Twilight 6:19 AM WEST 8:41 PM WEST
Nautical Twilight 5:45 AM WEST 9:16 PM WEST
Astronomical Twilight 5:08 AM WEST 9:53 PM WEST
Moon 10:46 PM WEST 8:08 AM WEST
Length of Visible Light 14h 21m
Length of Day
13h 24m
Tomorrow will be 2m 37s longer.
Waning Gibbous, 93% of the Moon is Illuminated
Today
Waning Gibbous
Apr 22
Last Quarter
Apr 29
New
May 6
First Quarter
May 14
Full

Today's Extremes

Country Highs Country Lows

Community

  • New Day
    New Day
  • Lake Michigan Sunrise
    Lake Michigan Sunrise
  • sunset from izmir, narlıdere
    sunset from izmir, narlıdere
  • oregon cherry
    oregon cherry
  • Sunset over the Bay
    Sunset over the Bay

WunderPhotos

Upload Photos

1,702,067 photos uploaded!

Nearby

Snow Depth

Not available.

Coastal Water Temperatures

Place Temperature
No Stations Reporting

Earthquake Activity

City Distance Mag. Time & Date
No recent earthquake activity has been reported nearby.
Minimum magnitude displayed is 2.5.

Nearby Weather Stations

Station Location Temp. Heat Index Dew Point Humidity Wind Precip. Elev Updated Type
Moimenta Da Beira, Moimenta Da Beira 76.4 °F 78 °F 50 °F 39% West  at  2.0 mph 0.00 in / hr 2192 ft 5:50 PM WEST Normal
Lixa 80.2 °F 79 °F 37 °F 21% WNW  at  3.6 mph 0.00 in / hr 1243 ft 5:54 PM WEST Rapid Fire

Show More Stations Show Fewer Stations

What do you think?

We're not finished. Please let us know what you like, what you don't like, and what you are still missing.